KCNW/CNW METAR and TAF weather

Enter ICAO airport designator
Station Type Date Time Source
KCNW METAR 2019/06/27 03:55 UTC NOAA

KCNW 270355Z 00000KT 10SM SKC 22/20 A3014


Station Type Date Time Source
KCNW Decoded METAR 2019/06/27 03:55 UTC NOAA

Station name not available
Jun 26, 2019 - 11:55 PM EDT / 2019.06.27 0355 UTC
Wind: Calm:0
Visibility: 10 mile(s):0
Sky conditions: clear
Temperature: 71 F (22 C)
Dew Point: 68 F (20 C)
Relative Humidity: 88%
Pressure (altimeter): 30.14 in. Hg (1020 hPa)
ob: KCNW 270355Z 00000KT 10SM SKC 22/20 A3014
cycle: 4

Station Type Date Time Source
KCNW TAF UTC NOAA

Error!

Example: see airport list